createdAt,value
2018-06-23T00:00:09.693Z,20.6
2018-06-23T00:01:00.004Z,20.7
2018-06-23T00:01:49.610Z,20.7
2018-06-23T00:02:40.262Z,20.7
2018-06-23T00:03:29.706Z,20.6
2018-06-23T00:04:20.065Z,20.7
2018-06-23T00:05:09.503Z,20.6
2018-06-23T00:05:59.890Z,20.6
2018-06-23T00:06:49.762Z,20.6
2018-06-23T00:07:39.814Z,20.6
2018-06-23T00:08:29.770Z,20.6
2018-06-23T00:09:20.440Z,20.6
2018-06-23T00:10:11.092Z,20.6
2018-06-23T00:11:00.561Z,20.6
2018-06-23T00:11:50.582Z,20.6
2018-06-23T00:12:40.643Z,20.6
2018-06-23T00:13:30.168Z,20.6
2018-06-23T00:14:20.296Z,20.6
2018-06-23T00:15:10.882Z,20.6
2018-06-23T00:16:00.405Z,20.6
2018-06-23T00:16:50.452Z,20.6
2018-06-23T00:17:41.399Z,20.6
2018-06-23T00:18:30.277Z,20.6
2018-06-23T00:19:21.201Z,20.6
2018-06-23T00:20:11.534Z,20.6
2018-06-23T00:21:00.460Z,20.6
2018-06-23T00:21:51.142Z,20.6
2018-06-23T00:22:41.449Z,20.6
2018-06-23T00:23:30.110Z,20.6
2018-06-23T00:24:21.314Z,20.6
2018-06-23T00:25:11.063Z,20.6
2018-06-23T00:26:01.967Z,20.6
2018-06-23T00:26:51.168Z,20.6
2018-06-23T00:27:40.972Z,20.6
2018-06-23T00:28:31.345Z,20.6
2018-06-23T00:29:21.664Z,20.6
2018-06-23T00:30:11.448Z,20.6
2018-06-23T00:31:01.789Z,20.5
2018-06-23T00:31:52.463Z,20.6
2018-06-23T00:32:41.882Z,20.5
2018-06-23T00:33:31.469Z,20.5
2018-06-23T00:34:21.746Z,20.5
2018-06-23T00:35:12.711Z,20.5
2018-06-23T00:36:02.436Z,20.5
2018-06-23T00:36:53.165Z,20.5
2018-06-23T00:37:42.859Z,20.5
2018-06-23T00:38:32.405Z,20.5
2018-06-23T00:39:21.861Z,20.5
2018-06-23T00:40:12.757Z,20.5
2018-06-23T00:41:02.259Z,20.5
2018-06-23T00:41:52.594Z,20.5
2018-06-23T00:42:42.956Z,20.5
2018-06-23T00:43:32.973Z,20.5
2018-06-23T00:44:23.659Z,20.5
2018-06-23T00:45:13.706Z,20.5
2018-06-23T00:46:03.750Z,20.5
2018-06-23T00:46:53.809Z,20.5
2018-06-23T00:47:43.624Z,20.5
2018-06-23T00:48:33.124Z,20.5
2018-06-23T00:49:22.358Z,20.5
2018-06-23T00:50:13.247Z,20.5
2018-06-23T00:51:03.568Z,20.5
2018-06-23T00:51:52.892Z,20.4
2018-06-23T00:52:43.432Z,20.4
2018-06-23T00:53:33.497Z,20.4
2018-06-23T00:54:23.684Z,20.4
2018-06-23T00:55:14.465Z,20.4
2018-06-23T00:56:02.630Z,20.4
2018-06-23T00:56:52.716Z,20.4
2018-06-23T00:57:44.687Z,20.4
2018-06-23T00:58:32.648Z,20.4
2018-06-23T00:59:24.262Z,20.4
2018-06-23T01:00:13.557Z,20.4
2018-06-23T01:01:04.895Z,20.4
2018-06-23T01:01:54.683Z,20.4
2018-06-23T01:02:44.275Z,20.4
2018-06-23T01:03:34.294Z,20.4
2018-06-23T01:04:24.838Z,20.4
2018-06-23T01:05:14.153Z,20.4
2018-06-23T01:06:03.911Z,20.4
2018-06-23T01:06:54.790Z,20.4
2018-06-23T01:07:43.506Z,20.4
2018-06-23T01:08:33.592Z,20.4
2018-06-23T01:09:24.908Z,20.4
2018-06-23T01:10:14.068Z,20.4
2018-06-23T01:11:04.588Z,20.4
2018-06-23T01:11:53.912Z,20.4
2018-06-23T01:12:43.906Z,20.4
2018-06-23T01:13:34.835Z,20.4
2018-06-23T01:14:24.617Z,20.4
2018-06-23T01:15:14.114Z,20.4
2018-06-23T01:16:05.778Z,20.4
2018-06-23T01:16:54.754Z,20.4
2018-06-23T01:17:45.685Z,20.4
2018-06-23T01:18:34.906Z,20.4
2018-06-23T01:19:25.306Z,20.4
2018-06-23T01:20:14.783Z,20.4
2018-06-23T01:21:04.563Z,20.4
2018-06-23T01:21:56.024Z,20.4
2018-06-23T01:22:45.581Z,20.4
2018-06-23T01:23:35.893Z,20.4
2018-06-23T01:24:25.395Z,20.3
2018-06-23T01:25:16.026Z,20.4
2018-06-23T01:26:06.025Z,20.4
2018-06-23T01:26:54.433Z,20.4
2018-06-23T01:27:46.500Z,20.4
2018-06-23T01:28:35.161Z,20.3
2018-06-23T01:29:25.509Z,20.3
2018-06-23T01:30:15.817Z,20.3
2018-06-23T01:31:06.429Z,20.3
2018-06-23T01:31:56.808Z,20.3
2018-06-23T01:32:46.222Z,20.3
2018-06-23T01:33:36.612Z,20.3
2018-06-23T01:34:26.926Z,20.3
2018-06-23T01:35:16.554Z,20.3
2018-06-23T01:36:07.101Z,20.3
2018-06-23T01:36:56.350Z,20.3
2018-06-23T01:37:46.670Z,20.3
2018-06-23T01:38:35.606Z,20.3
2018-06-23T01:39:26.277Z,20.3
2018-06-23T01:40:16.034Z,20.3
2018-06-23T01:41:07.222Z,20.3
2018-06-23T01:41:55.884Z,20.3
2018-06-23T01:42:45.944Z,20.3
2018-06-23T01:43:37.691Z,20.3
2018-06-23T01:44:27.884Z,20.3
2018-06-23T01:45:16.717Z,20.3
2018-06-23T01:46:06.206Z,20.3
2018-06-23T01:46:55.947Z,20.3
2018-06-23T01:47:46.297Z,20.3
2018-06-23T01:48:37.262Z,20.3
2018-06-23T01:49:27.611Z,20.3
2018-06-23T01:50:16.884Z,20.3
2018-06-23T01:51:07.751Z,20.3
2018-06-23T01:51:58.316Z,20.3
2018-06-23T01:52:47.271Z,20.3
2018-06-23T01:53:37.654Z,20.3
2018-06-23T01:54:26.834Z,20.3
2018-06-23T01:55:17.948Z,20.3
2018-06-23T01:56:08.538Z,20.3
2018-06-23T01:56:58.536Z,20.3
2018-06-23T01:57:48.700Z,20.3
2018-06-23T01:58:38.315Z,20.3
2018-06-23T01:59:28.317Z,20.3
2018-06-23T02:00:17.299Z,20.3
2018-06-23T02:01:08.705Z,20.2
2018-06-23T02:01:57.962Z,20.2
2018-06-23T02:02:49.699Z,20.2
2018-06-23T02:03:38.852Z,20.2
2018-06-23T02:04:28.964Z,20.2
2018-06-23T02:05:18.227Z,20.2
2018-06-23T02:06:08.017Z,20.2
2018-06-23T02:06:58.922Z,20.2
2018-06-23T02:07:48.378Z,20.2
2018-06-23T02:08:39.508Z,20.2
2018-06-23T02:09:28.255Z,20.2
2018-06-23T02:10:18.044Z,20.2
2018-06-23T02:11:09.012Z,20.2
2018-06-23T02:11:59.507Z,20.2
2018-06-23T02:12:48.925Z,20.2
2018-06-23T02:13:39.672Z,20.2
2018-06-23T02:14:29.996Z,20.2
2018-06-23T02:15:19.152Z,20.2
2018-06-23T02:16:09.279Z,20.2
2018-06-23T02:17:00.421Z,20.2
2018-06-23T02:17:49.673Z,20.2
2018-06-23T02:18:39.983Z,20.2
2018-06-23T02:19:29.027Z,20.1
2018-06-23T02:20:19.329Z,20.1
2018-06-23T02:21:10.257Z,20.1
2018-06-23T02:21:59.681Z,20.2
2018-06-23T02:22:51.167Z,20.1
2018-06-23T02:23:40.661Z,20.1
2018-06-23T02:24:30.568Z,20.1
2018-06-23T02:25:21.087Z,20.1
2018-06-23T02:26:10.794Z,20.1
2018-06-23T02:27:00.950Z,20.1
2018-06-23T02:27:51.244Z,20.1
2018-06-23T02:28:40.276Z,20.1
2018-06-23T02:29:30.963Z,20.1
2018-06-23T02:30:20.397Z,20.1
2018-06-23T02:31:11.112Z,20.1
2018-06-23T02:32:01.389Z,20.1
2018-06-23T02:32:50.780Z,20.1
2018-06-23T02:33:42.057Z,20.1
2018-06-23T02:34:31.294Z,20.1
2018-06-23T02:35:21.912Z,20.1
2018-06-23T02:36:11.621Z,20.1
2018-06-23T02:37:01.476Z,20.1
2018-06-23T02:37:51.823Z,20.1
2018-06-23T02:38:42.141Z,20.1
2018-06-23T02:39:30.838Z,20.1
2018-06-23T02:40:20.829Z,20.1
2018-06-23T02:41:11.201Z,20.1
2018-06-23T02:42:02.390Z,20.1
2018-06-23T02:42:52.416Z,20.1
2018-06-23T02:43:41.770Z,20.1
2018-06-23T02:44:32.240Z,20.1
2018-06-23T02:45:22.922Z,20.1
2018-06-23T02:46:12.672Z,20.1
2018-06-23T02:47:01.698Z,20.1
2018-06-23T02:47:51.950Z,20.1
2018-06-23T02:48:42.120Z,20.1
2018-06-23T02:49:32.650Z,20.1
2018-06-23T02:50:23.038Z,20.1
2018-06-23T02:51:11.801Z,20.1
2018-06-23T02:52:02.565Z,20.1
2018-06-23T02:52:53.079Z,20.1
2018-06-23T02:53:42.063Z,20.1
2018-06-23T02:54:32.763Z,20.1
2018-06-23T02:55:23.385Z,20.1
2018-06-23T02:56:13.172Z,20.1
2018-06-23T02:57:02.481Z,20
2018-06-23T02:57:51.670Z,20
2018-06-23T02:58:42.872Z,20
2018-06-23T02:59:33.126Z,20
2018-06-23T03:00:23.187Z,20
2018-06-23T03:01:12.533Z,20.1
2018-06-23T03:02:03.030Z,20
2018-06-23T03:02:53.500Z,20
2018-06-23T03:03:43.120Z,20
2018-06-23T03:04:31.902Z,20
2018-06-23T03:05:23.141Z,20
2018-06-23T03:06:13.669Z,20
2018-06-23T03:07:03.007Z,20
2018-06-23T03:07:54.345Z,20
2018-06-23T03:08:44.171Z,20
2018-06-23T03:09:33.696Z,20
2018-06-23T03:10:23.460Z,20
2018-06-23T03:11:13.595Z,20
2018-06-23T03:12:04.162Z,20
2018-06-23T03:12:54.519Z,20
2018-06-23T03:13:43.724Z,20
2018-06-23T03:14:33.563Z,20
2018-06-23T03:15:24.074Z,20
2018-06-23T03:16:13.449Z,19.9
2018-06-23T03:17:02.278Z,19.9
2018-06-23T03:17:54.606Z,19.9
2018-06-23T03:18:44.361Z,19.9
2018-06-23T03:19:34.773Z,19.9
2018-06-23T03:20:23.906Z,19.9
2018-06-23T03:21:14.307Z,19.9
2018-06-23T03:22:04.365Z,19.9
2018-06-23T03:22:54.666Z,19.9
2018-06-23T03:23:44.921Z,19.9
2018-06-23T03:24:33.946Z,19.9
2018-06-23T03:25:24.728Z,19.9
2018-06-23T03:26:14.891Z,19.9
2018-06-23T03:27:04.993Z,19.9
2018-06-23T03:27:54.742Z,19.9
2018-06-23T03:28:45.365Z,19.9
2018-06-23T03:29:34.322Z,19.9
2018-06-23T03:30:25.861Z,19.9
2018-06-23T03:31:15.156Z,19.9
2018-06-23T03:32:05.427Z,19.9
2018-06-23T03:32:55.191Z,19.9
2018-06-23T03:33:44.917Z,19.9
2018-06-23T03:34:35.273Z,19.9
2018-06-23T03:35:25.620Z,19.9
2018-06-23T03:36:15.745Z,19.9
2018-06-23T03:37:04.985Z,19.9
2018-06-23T03:37:55.832Z,19.9
2018-06-23T03:38:46.380Z,19.9
2018-06-23T03:39:35.070Z,19.9
2018-06-23T03:40:25.718Z,19.9
2018-06-23T03:41:16.331Z,19.9
2018-06-23T03:42:05.539Z,19.9
2018-06-23T03:42:56.631Z,19.9
2018-06-23T03:43:45.644Z,19.9
2018-06-23T03:44:36.249Z,19.9
2018-06-23T03:45:26.375Z,19.9
2018-06-23T03:46:15.826Z,19.9
2018-06-23T03:47:06.500Z,19.9
2018-06-23T03:47:57.108Z,19.9
2018-06-23T03:48:46.378Z,19.9
2018-06-23T03:49:36.917Z,19.9
2018-06-23T03:50:26.997Z,19.8
2018-06-23T03:51:17.126Z,19.8
2018-06-23T03:52:06.353Z,19.8
2018-06-23T03:52:56.346Z,19.8
2018-06-23T03:53:45.918Z,19.8
2018-06-23T03:54:37.317Z,19.8
2018-06-23T03:55:27.386Z,19.8
2018-06-23T03:56:16.917Z,19.8
2018-06-23T03:57:07.242Z,19.8
2018-06-23T03:57:57.010Z,19.8
2018-06-23T03:58:47.679Z,19.8
2018-06-23T03:59:37.728Z,19.8
2018-06-23T04:00:27.295Z,19.8
2018-06-23T04:01:17.563Z,19.8
2018-06-23T04:02:07.909Z,19.8
2018-06-23T04:02:57.725Z,19.8
2018-06-23T04:03:48.310Z,19.8
2018-06-23T04:04:37.807Z,19.8
2018-06-23T04:05:27.895Z,19.8
2018-06-23T04:06:17.375Z,19.8
2018-06-23T04:07:07.872Z,19.8
2018-06-23T04:07:57.741Z,19.8
2018-06-23T04:08:47.874Z,19.8
2018-06-23T04:09:37.594Z,19.8
2018-06-23T04:10:28.560Z,19.8
2018-06-23T04:11:17.772Z,19.8
2018-06-23T04:12:08.652Z,19.8
2018-06-23T04:12:58.438Z,19.8
2018-06-23T04:13:48.460Z,19.8
2018-06-23T04:14:38.301Z,19.8
2018-06-23T04:15:28.864Z,19.8
2018-06-23T04:16:19.386Z,19.8
2018-06-23T04:17:09.841Z,19.8
2018-06-23T04:17:59.123Z,19.8
2018-06-23T04:18:49.018Z,19.8
2018-06-23T04:19:39.210Z,19.8
2018-06-23T04:20:28.951Z,19.8
2018-06-23T04:21:19.069Z,19.8
2018-06-23T04:22:09.908Z,19.8
2018-06-23T04:22:59.418Z,19.8
2018-06-23T04:23:49.246Z,19.8
2018-06-23T04:24:38.717Z,19.8
2018-06-23T04:25:28.478Z,19.8
2018-06-23T04:26:19.619Z,19.8
2018-06-23T04:27:09.705Z,19.8
2018-06-23T04:28:00.547Z,19.8
2018-06-23T04:28:49.752Z,19.8
2018-06-23T04:29:39.889Z,19.8
2018-06-23T04:30:29.984Z,19.8
2018-06-23T04:31:19.489Z,19.8
2018-06-23T04:32:10.939Z,19.8
2018-06-23T04:33:00.070Z,19.8
2018-06-23T04:33:49.704Z,19.8
2018-06-23T04:34:40.818Z,19.7
2018-06-23T04:35:29.819Z,19.7
2018-06-23T04:36:20.469Z,19.7
2018-06-23T04:37:10.473Z,19.7
2018-06-23T04:38:00.385Z,19.7
2018-06-23T04:38:50.690Z,19.7
2018-06-23T04:39:39.598Z,19.7
2018-06-23T04:40:29.721Z,19.7
2018-06-23T04:41:21.569Z,19.7
2018-06-23T04:42:11.656Z,19.7
2018-06-23T04:43:00.692Z,19.7
2018-06-23T04:43:50.128Z,19.7
2018-06-23T04:44:41.676Z,19.7
2018-06-23T04:45:31.043Z,19.7
2018-06-23T04:46:21.116Z,19.7
2018-06-23T04:47:10.899Z,19.7
2018-06-23T04:48:01.498Z,19.7
2018-06-23T04:48:51.910Z,19.7
2018-06-23T04:49:41.474Z,19.6
2018-06-23T04:50:31.140Z,19.6
2018-06-23T04:51:22.060Z,19.7
2018-06-23T04:52:10.973Z,19.6
2018-06-23T04:53:01.069Z,19.7
2018-06-23T04:53:51.931Z,19.6
2018-06-23T04:54:41.514Z,19.6
2018-06-23T04:55:32.367Z,19.6
2018-06-23T04:56:22.415Z,19.6
2018-06-23T04:57:12.196Z,19.6
2018-06-23T04:58:03.421Z,19.6
2018-06-23T04:58:51.795Z,19.6
2018-06-23T04:59:42.995Z,19.6
2018-06-23T05:00:33.806Z,19.6
2018-06-23T05:01:22.278Z,19.6
2018-06-23T05:02:12.820Z,19.6
2018-06-23T05:03:02.639Z,19.6
2018-06-23T05:03:52.980Z,19.6
2018-06-23T05:04:41.361Z,19.6
2018-06-23T05:05:32.309Z,19.6
2018-06-23T05:06:22.406Z,19.6
2018-06-23T05:07:12.481Z,19.6
2018-06-23T05:08:02.527Z,19.6
2018-06-23T05:08:52.710Z,19.6
2018-06-23T05:09:43.225Z,19.6
2018-06-23T05:10:31.893Z,19.6
2018-06-23T05:11:22.563Z,19.6
2018-06-23T05:12:13.397Z,19.6
2018-06-23T05:13:02.574Z,19.6
2018-06-23T05:13:52.983Z,19.6
2018-06-23T05:14:43.312Z,19.6
2018-06-23T05:15:32.615Z,19.6
2018-06-23T05:16:23.991Z,19.6
2018-06-23T05:17:14.005Z,19.6
2018-06-23T05:18:03.265Z,19.6
2018-06-23T05:18:53.572Z,19.6
2018-06-23T05:19:42.600Z,19.6
2018-06-23T05:20:33.307Z,19.6
2018-06-23T05:21:24.344Z,19.6
2018-06-23T05:22:13.412Z,19.6
2018-06-23T05:23:03.736Z,19.6
2018-06-23T05:23:54.313Z,19.6
2018-06-23T05:24:44.082Z,19.6
2018-06-23T05:25:33.314Z,19.6
2018-06-23T05:26:24.222Z,19.6
2018-06-23T05:27:13.807Z,19.6
2018-06-23T05:28:04.594Z,19.6
2018-06-23T05:28:54.473Z,19.6
2018-06-23T05:29:43.674Z,19.6
2018-06-23T05:30:35.037Z,19.6
2018-06-23T05:31:24.627Z,19.6
2018-06-23T05:32:14.058Z,19.6
2018-06-23T05:33:03.598Z,19.6
2018-06-23T05:33:53.410Z,19.5
2018-06-23T05:34:44.597Z,19.5
2018-06-23T05:35:34.399Z,19.6
2018-06-23T05:36:25.270Z,19.6
2018-06-23T05:37:15.455Z,19.6
2018-06-23T05:38:05.113Z,19.6
2018-06-23T05:38:55.170Z,19.6
2018-06-23T05:39:44.672Z,19.6
2018-06-23T05:40:35.061Z,19.5
2018-06-23T05:41:25.132Z,19.5
2018-06-23T05:42:14.306Z,19.5
2018-06-23T05:43:05.499Z,19.6
2018-06-23T05:43:55.027Z,19.5
2018-06-23T05:44:45.019Z,19.5
2018-06-23T05:45:35.696Z,19.5
2018-06-23T05:46:24.650Z,19.5
2018-06-23T05:47:16.079Z,19.5
2018-06-23T05:48:05.536Z,19.5
2018-06-23T05:48:56.238Z,19.5
2018-06-23T05:49:46.786Z,19.5
2018-06-23T05:50:35.115Z,19.5
2018-06-23T05:51:28.163Z,19.5
2018-06-23T05:52:16.209Z,19.5
2018-06-23T05:53:06.119Z,19.5
2018-06-23T05:53:56.771Z,19.5
2018-06-23T05:54:46.282Z,19.5
2018-06-23T05:55:36.725Z,19.5
2018-06-23T05:56:27.315Z,19.5
2018-06-23T05:57:17.329Z,19.5
2018-06-23T05:58:05.702Z,19.5
2018-06-23T05:58:57.188Z,19.5
2018-06-23T05:59:47.529Z,19.5
2018-06-23T06:00:37.503Z,19.5
2018-06-23T06:01:26.469Z,19.5
2018-06-23T06:02:16.903Z,19.5
2018-06-23T06:03:07.173Z,19.5
2018-06-23T06:03:57.548Z,19.5
2018-06-23T06:04:47.701Z,19.4
2018-06-23T06:05:37.372Z,19.4
2018-06-23T06:06:26.910Z,19.4
2018-06-23T06:07:18.117Z,19.4
2018-06-23T06:08:07.935Z,19.4
2018-06-23T06:08:58.203Z,19.5
2018-06-23T06:09:47.687Z,19.5
2018-06-23T06:10:37.446Z,19.4
2018-06-23T06:11:27.823Z,19.4
2018-06-23T06:12:18.166Z,19.3
2018-06-23T06:13:08.277Z,19.3
2018-06-23T06:13:58.349Z,19.3
2018-06-23T06:14:47.795Z,19.3
2018-06-23T06:15:38.149Z,19.3
2018-06-23T06:16:28.163Z,19.3
2018-06-23T06:17:18.800Z,19.3
2018-06-23T06:18:08.587Z,19.3
2018-06-23T06:18:58.333Z,19.3
2018-06-23T06:19:48.946Z,19.3
2018-06-23T06:20:38.761Z,19.3
2018-06-23T06:21:28.530Z,19.3
2018-06-23T06:22:18.334Z,19.3
2018-06-23T06:23:08.130Z,19.3
2018-06-23T06:24:00.225Z,19.3
2018-06-23T06:24:49.039Z,19.3
2018-06-23T06:25:38.030Z,19.3
2018-06-23T06:26:29.183Z,19.3
2018-06-23T06:27:19.333Z,19.3
2018-06-23T06:28:09.279Z,19.3
2018-06-23T06:28:59.600Z,19.3
2018-06-23T06:29:48.375Z,19.3
2018-06-23T06:30:39.255Z,19.3
2018-06-23T06:31:29.859Z,19.3
2018-06-23T06:32:19.106Z,19.3
2018-06-23T06:33:09.488Z,19.3
2018-06-23T06:33:58.997Z,19.3
2018-06-23T06:34:50.155Z,19.3
2018-06-23T06:35:39.824Z,19.3
2018-06-23T06:36:28.863Z,19.3
2018-06-23T06:37:18.969Z,19.3
2018-06-23T06:38:08.484Z,19.3
2018-06-23T06:39:00.258Z,19.3
2018-06-23T06:39:50.238Z,19.3
2018-06-23T06:40:40.085Z,19.3
2018-06-23T06:41:30.063Z,19.3
2018-06-23T06:42:19.662Z,19.3
2018-06-23T06:43:10.493Z,19.3
2018-06-23T06:43:59.731Z,19.3
2018-06-23T06:44:50.800Z,19.4
2018-06-23T06:45:40.191Z,19.3
2018-06-23T06:46:29.954Z,19.3
2018-06-23T06:47:19.518Z,19.3
2018-06-23T06:48:10.634Z,19.3
2018-06-23T06:49:00.350Z,19.4
2018-06-23T06:49:49.912Z,19.3
2018-06-23T06:50:40.264Z,19.4
2018-06-23T06:51:30.584Z,19.3
2018-06-23T06:52:21.249Z,19.3
2018-06-23T06:53:10.679Z,19.4
2018-06-23T06:54:01.595Z,19.4
2018-06-23T06:54:51.442Z,19.4
2018-06-23T06:55:41.679Z,19.4
2018-06-23T06:56:31.559Z,19.3
2018-06-23T06:57:22.506Z,19.4
2018-06-23T06:58:10.778Z,19.4
2018-06-23T06:59:01.906Z,19.4
2018-06-23T06:59:51.291Z,19.4
2018-06-23T07:00:41.554Z,19.4
2018-06-23T07:01:31.028Z,19.4
2018-06-23T07:02:21.670Z,19.4
2018-06-23T07:03:11.449Z,19.4
2018-06-23T07:04:02.049Z,19.4
2018-06-23T07:04:52.423Z,19.4
2018-06-23T07:05:42.453Z,19.4
2018-06-23T07:06:31.727Z,19.4
2018-06-23T07:07:22.585Z,19.4
2018-06-23T07:08:12.367Z,19.4
2018-06-23T07:09:03.229Z,19.4
2018-06-23T07:09:52.276Z,19.4
2018-06-23T07:10:42.328Z,19.4
2018-06-23T07:11:32.106Z,19.4
2018-06-23T07:12:22.735Z,19.4
2018-06-23T07:13:12.874Z,19.4
2018-06-23T07:14:02.810Z,19.4
2018-06-23T07:14:52.612Z,19.4
2018-06-23T07:15:44.186Z,19.4
2018-06-23T07:16:32.475Z,19.4
2018-06-23T07:17:23.356Z,19.4
2018-06-23T07:18:13.140Z,19.4
2018-06-23T07:19:03.449Z,19.4
2018-06-23T07:19:52.969Z,19.4
2018-06-23T07:20:42.700Z,19.4
2018-06-23T07:21:33.422Z,19.4
2018-06-23T07:22:23.156Z,19.4
2018-06-23T07:23:13.206Z,19.4
2018-06-23T07:24:05.712Z,19.4
2018-06-23T07:24:52.833Z,19.4
2018-06-23T07:25:42.837Z,19.4
2018-06-23T07:26:33.431Z,19.4
2018-06-23T07:27:22.737Z,19.4
2018-06-23T07:28:13.095Z,19.4
2018-06-23T07:29:04.171Z,19.4
2018-06-23T07:29:53.714Z,19.4
2018-06-23T07:30:44.819Z,19.4
2018-06-23T07:31:33.831Z,19.4
2018-06-23T07:32:24.183Z,19.4
2018-06-23T07:33:14.271Z,19.4
2018-06-23T07:34:04.008Z,19.4
2018-06-23T07:34:57.592Z,19.4
2018-06-23T07:35:43.601Z,19.4
2018-06-23T07:36:34.499Z,19.4
2018-06-23T07:37:24.581Z,19.4
2018-06-23T07:38:14.039Z,19.4
2018-06-23T07:39:04.677Z,19.4
2018-06-23T07:39:53.901Z,19.4
2018-06-23T07:40:45.985Z,19.4
2018-06-23T07:41:34.371Z,19.4
2018-06-23T07:42:25.007Z,19.4
2018-06-23T07:43:13.623Z,19.4
2018-06-23T07:44:04.283Z,19.4
2018-06-23T07:44:53.468Z,19.4
2018-06-23T07:45:44.698Z,19.4
2018-06-23T07:46:34.545Z,19.4
2018-06-23T07:47:25.485Z,19.4
2018-06-23T07:48:15.086Z,19.4
2018-06-23T07:49:05.211Z,19.4
2018-06-23T07:49:55.213Z,19.4
2018-06-23T07:50:45.665Z,19.4
2018-06-23T07:51:35.367Z,19.4
2018-06-23T07:52:25.376Z,19.4
2018-06-23T07:53:14.120Z,19.4
2018-06-23T07:54:05.251Z,19.4
2018-06-23T07:54:55.302Z,19.4
2018-06-23T07:55:45.977Z,19.4
2018-06-23T07:56:35.722Z,19.4
2018-06-23T07:57:26.315Z,19.4
2018-06-23T07:58:15.534Z,19.4
2018-06-23T07:59:05.872Z,19.4
2018-06-23T07:59:54.831Z,19.4
2018-06-23T08:00:45.495Z,19.4
2018-06-23T08:01:36.705Z,19.4
2018-06-23T08:02:26.114Z,19.4
2018-06-23T08:03:15.941Z,19.4
2018-06-23T08:04:06.016Z,19.4
2018-06-23T08:04:56.577Z,19.4
2018-06-23T08:05:45.561Z,19.4
2018-06-23T08:06:36.513Z,19.4
2018-06-23T08:07:26.260Z,19.4
2018-06-23T08:08:16.845Z,19.4
2018-06-23T08:09:06.432Z,19.4
2018-06-23T08:09:56.461Z,19.4
2018-06-23T08:10:46.493Z,19.4
2018-06-23T08:11:37.450Z,19.4
2018-06-23T08:12:26.972Z,19.4
2018-06-23T08:13:17.436Z,19.4
2018-06-23T08:14:07.304Z,19.4
2018-06-23T08:14:57.383Z,19.4
2018-06-23T08:15:47.076Z,19.4
2018-06-23T08:16:37.166Z,19.4
2018-06-23T08:17:27.608Z,19.4
2018-06-23T08:18:17.866Z,19.4
2018-06-23T08:19:07.381Z,19.4
2018-06-23T08:19:57.487Z,19.4
2018-06-23T08:20:46.702Z,19.4
2018-06-23T08:21:37.902Z,19.4
2018-06-23T08:22:27.890Z,19.4
2018-06-23T08:23:16.596Z,19.4
2018-06-23T08:24:07.878Z,19.4
2018-06-23T08:24:58.776Z,19.4
2018-06-23T08:25:47.416Z,19.4
2018-06-23T08:26:41.242Z,19.4
2018-06-23T08:27:28.612Z,19.4
2018-06-23T08:28:18.158Z,19.4
2018-06-23T08:29:08.384Z,19.4
2018-06-23T08:29:58.791Z,19.4
2018-06-23T08:30:48.524Z,19.4
2018-06-23T08:31:38.388Z,19.4
2018-06-23T08:32:28.373Z,19.4
2018-06-23T08:33:18.717Z,19.4
2018-06-23T08:34:07.920Z,19.4
2018-06-23T08:34:58.769Z,19.4
2018-06-23T08:35:47.795Z,19.4
2018-06-23T08:36:38.982Z,19.4
2018-06-23T08:37:28.838Z,19.4
2018-06-23T08:38:19.131Z,19.4
2018-06-23T08:39:09.176Z,19.4
2018-06-23T08:39:59.208Z,19.4
2018-06-23T08:40:49.326Z,19.4
2018-06-23T08:41:39.328Z,19.4
2018-06-23T08:42:28.866Z,19.4
2018-06-23T08:43:19.725Z,19.4
2018-06-23T08:44:09.251Z,19.4
2018-06-23T08:44:59.590Z,19.4
2018-06-23T08:45:49.395Z,19.4
2018-06-23T08:46:40.010Z,19.4
2018-06-23T08:47:29.247Z,19.4
2018-06-23T08:48:20.171Z,19.4
2018-06-23T08:49:11.211Z,19.4
2018-06-23T08:49:59.748Z,19.4
2018-06-23T08:50:49.757Z,19.4
2018-06-23T08:51:39.257Z,19.4
2018-06-23T08:52:29.599Z,19.4
2018-06-23T08:53:19.910Z,19.4
2018-06-23T08:54:09.421Z,19.4
2018-06-23T08:55:00.358Z,19.4
2018-06-23T08:55:50.360Z,19.4
2018-06-23T08:56:39.911Z,19.4
2018-06-23T08:57:30.805Z,19.4
2018-06-23T08:58:20.061Z,19.4
2018-06-23T08:59:10.129Z,19.4
2018-06-23T09:00:00.415Z,19.4
2018-06-23T09:00:51.050Z,19.4
2018-06-23T09:01:40.685Z,19.4
2018-06-23T09:02:30.888Z,19.4
2018-06-23T09:03:20.673Z,19.3
2018-06-23T09:04:10.594Z,19.3
2018-06-23T09:05:01.335Z,19.1
2018-06-23T09:05:51.479Z,19.1
2018-06-23T09:06:40.897Z,19.1
2018-06-23T09:07:30.161Z,19.1
2018-06-23T09:08:20.794Z,19.1
2018-06-23T09:09:11.733Z,19
2018-06-23T09:10:00.423Z,19
2018-06-23T09:10:50.415Z,18.9
2018-06-23T09:11:41.850Z,18.9
2018-06-23T09:12:31.753Z,18.9
2018-06-23T09:13:21.458Z,18.9
2018-06-23T09:14:11.469Z,18.9
2018-06-23T09:15:01.391Z,18.9
2018-06-23T09:15:52.162Z,18.9
2018-06-23T09:16:41.881Z,18.9
2018-06-23T09:17:31.833Z,18.9
2018-06-23T09:18:21.543Z,18.9
2018-06-23T09:19:11.605Z,18.9
2018-06-23T09:20:02.244Z,18.9
2018-06-23T09:20:52.589Z,18.9
2018-06-23T09:21:41.511Z,18.9
2018-06-23T09:22:31.928Z,18.9
2018-06-23T09:23:21.994Z,18.9
2018-06-23T09:24:12.528Z,19
2018-06-23T09:25:02.110Z,19
2018-06-23T09:25:53.462Z,19
2018-06-23T09:26:42.522Z,19
2018-06-23T09:27:32.751Z,19
2018-06-23T09:28:22.527Z,19
2018-06-23T09:29:12.869Z,19.1
2018-06-23T09:30:02.979Z,19
2018-06-23T09:30:52.482Z,19.1
2018-06-23T09:31:43.073Z,19.1
2018-06-23T09:32:33.204Z,19.1
2018-06-23T09:33:23.523Z,19.1
2018-06-23T09:34:13.006Z,19.1
2018-06-23T09:35:02.823Z,19.1
2018-06-23T09:35:53.683Z,19.1
2018-06-23T09:36:43.009Z,19.1
2018-06-23T09:37:33.545Z,19.1
2018-06-23T09:38:23.326Z,19.1
2018-06-23T09:39:13.634Z,19.1
2018-06-23T09:40:03.260Z,19.1
2018-06-23T09:40:52.708Z,19.1
2018-06-23T09:41:42.249Z,19.1
2018-06-23T09:42:32.250Z,19.1
2018-06-23T09:43:23.702Z,19.1
2018-06-23T09:44:13.214Z,19.1
2018-06-23T09:45:02.471Z,19.1
2018-06-23T09:45:55.411Z,19.1
2018-06-23T09:46:43.133Z,19.2
2018-06-23T09:47:34.079Z,19.2
2018-06-23T09:48:23.791Z,19.2
2018-06-23T09:49:13.448Z,19.2
2018-06-23T09:50:03.969Z,19.2
2018-06-23T09:50:54.281Z,19.2
2018-06-23T09:51:43.518Z,19.2
2018-06-23T09:52:34.441Z,19.2
2018-06-23T09:53:23.343Z,19.3
2018-06-23T09:54:14.520Z,19.3
2018-06-23T09:55:04.331Z,19.2
2018-06-23T09:55:55.102Z,19.3
2018-06-23T09:56:44.226Z,19.3
2018-06-23T09:57:34.234Z,19.3
2018-06-23T09:58:24.322Z,19.3
2018-06-23T09:59:14.910Z,19.3
2018-06-23T10:00:04.980Z,19.3
2018-06-23T10:00:55.063Z,19.3
2018-06-23T10:01:44.848Z,19.3
2018-06-23T10:02:34.887Z,19.3
2018-06-23T10:03:25.935Z,19.3
2018-06-23T10:04:14.777Z,19.3
2018-06-23T10:05:04.244Z,19.3
2018-06-23T10:05:55.238Z,19.3
2018-06-23T10:06:45.988Z,19.3
2018-06-23T10:07:35.517Z,19.3
2018-06-23T10:08:25.570Z,19.3
2018-06-23T10:09:15.726Z,19.3
2018-06-23T10:10:06.000Z,19.3
2018-06-23T10:10:55.799Z,19.3
2018-06-23T10:11:45.064Z,19.4
2018-06-23T10:12:35.413Z,19.3
2018-06-23T10:13:25.698Z,19.3
2018-06-23T10:14:16.049Z,19.3
2018-06-23T10:15:05.778Z,19.3
2018-06-23T10:15:56.219Z,19.4
2018-06-23T10:16:44.919Z,19.4
2018-06-23T10:17:36.569Z,19.4
2018-06-23T10:18:25.154Z,19.4
2018-06-23T10:19:16.138Z,19.4
2018-06-23T10:20:05.496Z,19.4
2018-06-23T10:20:56.816Z,19.4
2018-06-23T10:21:47.029Z,19.4
2018-06-23T10:22:36.682Z,19.4
2018-06-23T10:23:26.454Z,19.4
2018-06-23T10:24:16.553Z,19.4
2018-06-23T10:25:06.877Z,19.4
2018-06-23T10:25:56.895Z,19.4
2018-06-23T10:26:46.940Z,19.4
2018-06-23T10:27:37.395Z,19.4
2018-06-23T10:28:27.087Z,19.4
2018-06-23T10:29:17.448Z,19.4
2018-06-23T10:30:05.896Z,19.4
2018-06-23T10:30:57.010Z,19.4
2018-06-23T10:31:47.615Z,19.4
2018-06-23T10:32:36.978Z,19.4
2018-06-23T10:33:27.699Z,19.4
2018-06-23T10:34:18.085Z,19.4
2018-06-23T10:35:06.829Z,19.4
2018-06-23T10:35:57.675Z,19.5
2018-06-23T10:36:47.463Z,19.5
2018-06-23T10:37:38.070Z,19.4
2018-06-23T10:38:27.675Z,19.5
2018-06-23T10:39:17.681Z,19.5
2018-06-23T10:40:10.925Z,19.5
2018-06-23T10:40:57.506Z,19.5
2018-06-23T10:41:48.405Z,19.5
2018-06-23T10:42:38.719Z,19.5
2018-06-23T10:43:27.660Z,19.5
2018-06-23T10:44:17.842Z,19.5
2018-06-23T10:45:08.141Z,19.5
2018-06-23T10:45:58.006Z,19.5
2018-06-23T10:46:48.029Z,19.5
2018-06-23T10:47:37.953Z,19.5
2018-06-23T10:48:27.644Z,19.6
2018-06-23T10:49:18.513Z,19.6
2018-06-23T10:50:08.483Z,19.6
2018-06-23T10:50:58.218Z,19.6
2018-06-23T10:51:48.011Z,19.6
2018-06-23T10:52:38.936Z,19.6
2018-06-23T10:53:29.024Z,19.5
2018-06-23T10:54:19.194Z,19.6
2018-06-23T10:55:08.595Z,19.6
2018-06-23T10:55:58.372Z,19.6
2018-06-23T10:56:48.963Z,19.6
2018-06-23T10:57:38.810Z,19.6
2018-06-23T10:58:29.372Z,19.6
2018-06-23T10:59:18.992Z,19.6
2018-06-23T11:00:08.676Z,19.6
2018-06-23T11:01:00.102Z,19.6
2018-06-23T11:01:49.650Z,19.6
2018-06-23T11:02:39.632Z,19.6
2018-06-23T11:03:30.020Z,19.6
2018-06-23T11:04:20.093Z,19.6
2018-06-23T11:05:10.900Z,19.6
2018-06-23T11:06:00.017Z,19.6
2018-06-23T11:06:49.798Z,19.6
2018-06-23T11:07:40.071Z,19.6